Time;durP1;ratioP1;P1;durP2;ratioP2;P2;SDS_P1;SDS_P2;PMS_P1;PMS_P2;Temp;Humidity;BMP_temperature;BMP_pressure;BME280_temperature;BME280_humidity;BME280_pressure;Samples;Min_cycle;Max_cycle;Signal;HPM_P1;HPM_P2
2024/03/20 00:01:09;;;;;;;;;72.00;55.00;;;;;0.33;98.79;100134.88;6302078;20;2882594;-42
2024/03/20 00:03:36;;;;;;;;;71.50;52.00;;;;;0.48;97.52;100134.69;6269110;20;2870154;-42
2024/03/20 00:06:04;;;;;;;;;74.33;57.33;;;;;0.37;99.06;100137.47;6271141;20;2881611;-43
2024/03/20 00:08:32;;;;;;;;;80.50;61.00;;;;;0.42;98.43;100132.09;6304232;20;2886118;-42
2024/03/20 00:11:00;;;;;;;;;80.33;60.33;;;;;0.41;98.75;100136.50;6273286;20;2884809;-42
2024/03/20 00:13:28;;;;;;;;;76.67;57.33;;;;;0.84;97.05;100135.03;6303801;20;2870301;-42
2024/03/20 00:15:56;;;;;;;;;76.00;58.00;;;;;0.59;97.05;100130.13;6301265;20;2880595;-41
2024/03/20 00:18:23;;;;;;;;;59.50;45.50;;;;;0.54;96.89;100131.06;6272652;20;2865913;-43
2024/03/20 00:20:49;;;;;;;;;77.00;60.50;;;;;0.48;97.13;100131.16;6268985;20;2500427;-42
2024/03/20 00:23:18;;;;;;;;;77.00;58.67;;;;;-0.13;100.00;100140.66;6271678;20;2887003;-42
2024/03/20 00:25:46;;;;;;;;;80.33;60.67;;;;;0.15;100.00;100142.13;6300280;20;3637808;-44
2024/03/20 00:28:13;;;;;;;;;63.50;49.00;;;;;-0.28;100.00;100137.31;6300396;20;2496190;-43
2024/03/20 00:30:41;;;;;;;;;56.00;45.50;;;;;-0.89;100.00;100140.50;6271357;20;2855512;-43
2024/03/20 00:33:08;;;;;;;;;48.50;42.50;;;;;-1.20;100.00;100137.22;6271331;20;2864246;-43
2024/03/20 00:35:37;;;;;;;;;50.50;41.00;;;;;-1.04;100.00;100138.00;6269988;20;2871161;-43
2024/03/20 00:38:05;;;;;;;;;41.50;35.50;;;;;-1.14;100.00;100140.66;6272498;20;2854582;-43
2024/03/20 00:40:33;;;;;;;;;52.50;42.50;;;;;-1.14;100.00;100147.69;6271892;20;2885695;-42
2024/03/20 00:43:00;;;;;;;;;53.00;42.00;;;;;-1.00;100.00;100139.69;6271543;20;2883611;-41
2024/03/20 00:45:29;;;;;;;;;49.00;39.33;;;;;-1.08;100.00;100139.75;6268736;20;2884816;-41
2024/03/20 00:47:56;;;;;;;;;53.00;43.00;;;;;-1.21;100.00;100135.44;6299128;20;2878435;-45
2024/03/20 00:50:23;;;;;;;;;46.00;41.00;;;;;-1.14;100.00;100132.75;6268223;20;2500740;-45
2024/03/20 00:52:51;;;;;;;;;47.00;37.33;;;;;-0.36;100.00;100136.53;6270452;20;2869031;-45
2024/03/20 00:55:20;;;;;;;;;57.00;43.33;;;;;-0.52;100.00;100132.28;6300955;20;2878586;-42
2024/03/20 00:57:47;;;;;;;;;44.50;41.50;;;;;-0.57;100.00;100129.69;6299283;20;2864942;-42
2024/03/20 01:00:19;;;;;;;;;64.00;51.00;;;;;-0.24;100.00;100128.50;6270319;20;2855663;-43
2024/03/20 01:02:46;;;;;;;;;69.00;47.50;;;;;-0.10;100.00;100124.84;6267169;20;2496174;-41
2024/03/20 01:05:14;;;;;;;;;70.50;51.50;;;;;-0.12;100.00;100127.47;6273880;20;2858609;-41
2024/03/20 01:07:42;;;;;;;;;71.67;54.33;;;;;-0.12;100.00;100123.97;6274282;20;2883722;-43
2024/03/20 01:10:11;;;;;;;;;74.33;54.67;;;;;-0.05;100.00;100123.03;6306601;20;2887904;-43
2024/03/20 01:12:39;;;;;;;;;74.00;57.67;;;;;0.13;100.00;100116.63;6306388;20;2881579;-43
2024/03/20 01:15:08;;;;;;;;;74.33;55.67;;;;;-0.09;100.00;100122.16;6305730;20;2890022;-42
2024/03/20 01:17:37;;;;;;;;;78.67;61.33;;;;;-0.17;100.00;100117.88;6306929;20;2884696;-43
2024/03/20 01:20:07;;;;;;;;;84.33;62.67;;;;;-0.24;100.00;100123.22;6308341;20;3638939;-42
2024/03/20 01:22:37;;;;;;;;;82.67;63.33;;;;;-0.22;100.00;100116.13;6307925;20;2891169;-42
2024/03/20 01:25:08;;;;;;;;;80.33;60.33;;;;;-0.45;100.00;100107.59;6303435;20;2874436;-42
2024/03/20 01:27:36;;;;;;;;;78.00;61.00;;;;;-0.25;100.00;100110.91;6307082;20;2877400;-42
2024/03/20 01:30:05;;;;;;;;;80.67;56.33;;;;;-0.25;100.00;100105.63;6274903;20;2896185;-43
2024/03/20 01:32:33;;;;;;;;;81.00;62.00;;;;;-0.36;100.00;100107.50;6306255;20;2879453;-42
2024/03/20 01:35:00;;;;;;;;;67.50;50.50;;;;;-0.32;100.00;100103.94;6273762;20;2873295;-42
2024/03/20 01:37:27;;;;;;;;;74.50;57.00;;;;;-0.46;100.00;100106.72;6270048;20;2499342;-44
2024/03/20 01:39:55;;;;;;;;;79.00;58.67;;;;;-0.87;100.00;100099.19;6275110;20;3645120;-45
2024/03/20 01:42:24;;;;;;;;;78.33;60.67;;;;;-0.93;100.00;100101.88;6305473;20;2885713;-44
2024/03/20 01:45:14;;;;;;;;;86.33;61.00;;;;;-0.53;100.00;100099.75;6304539;20;2898283;-41
2024/03/20 01:47:44;;;;;;;;;73.50;57.00;;;;;-0.63;100.00;100102.47;6303343;20;2500374;-42
2024/03/20 01:50:13;;;;;;;;;76.50;58.50;;;;;-0.03;100.00;100105.38;6275892;20;2874365;-42
2024/03/20 01:52:55;;;;;;;;;75.33;58.00;;;;;0.04;100.00;100107.06;6273558;20;2883716;-42
2024/03/20 01:55:24;;;;;;;;;72.00;55.50;;;;;-0.09;100.00;100110.72;6304694;20;2868045;-42
2024/03/20 01:57:53;;;;;;;;;71.50;51.50;;;;;-0.11;100.00;100101.94;6272240;20;2866009;-43
2024/03/20 02:00:23;;;;;;;;;71.00;54.50;;;;;-0.28;100.00;100110.06;6270962;20;2500278;-42
2024/03/20 02:02:59;;;;;;;;;70.00;55.00;;;;;-0.04;100.00;100115.06;6271633;20;2497212;-41
2024/03/20 02:05:28;;;;;;;;;69.75;53.50;;;;;-0.52;100.00;100105.91;6274073;20;3617990;-43
2024/03/20 02:07:56;;;;;;;;;69.50;50.50;;;;;-0.40;100.00;100111.06;6299420;20;2874268;-41
2024/03/20 02:10:25;;;;;;;;;68.00;51.00;;;;;-0.29;100.00;100113.56;6274257;20;2500716;-42
2024/03/20 02:13:07;;;;;;;;;70.33;52.00;;;;;-0.12;100.00;100121.31;6304685;20;2875278;-41
2024/03/20 02:15:34;;;;;;;;;52.00;39.00;;;;;-0.34;100.00;100115.38;6300847;20;2502379;-43
2024/03/20 02:18:02;;;;;;;;;63.00;47.00;;;;;-0.72;100.00;100114.88;6273906;20;2876438;-43
2024/03/20 02:20:30;;;;;;;;;68.50;54.50;;;;;-0.68;100.00;100106.06;6271148;20;2489857;-43
2024/03/20 02:23:00;;;;;;;;;65.50;50.50;;;;;-0.09;100.00;100110.72;6275432;20;2868017;-43
2024/03/20 02:25:30;;;;;;;;;74.50;55.50;;;;;-0.55;100.00;100105.97;6273524;20;2872218;-42
2024/03/20 02:27:58;;;;;;;;;85.00;63.00;;;;;-0.48;100.00;100113.75;6273784;20;2784797;-41
2024/03/20 02:30:26;;;;;;;;;75.00;58.00;;;;;-0.45;100.00;100108.47;6271693;20;2863916;-41
2024/03/20 02:32:54;;;;;;;;;79.67;57.33;;;;;-0.33;100.00;100118.03;6274287;20;3647177;-41
2024/03/20 02:35:22;;;;;;;;;78.00;53.00;;;;;-0.62;100.00;100114.81;6304349;20;3643989;-41
2024/03/20 02:37:51;;;;;;;;;89.00;63.67;;;;;-0.76;100.00;100115.81;6303805;20;3646075;-44
2024/03/20 02:40:19;;;;;;;;;86.67;64.67;;;;;-0.69;100.00;100112.19;6304827;20;3656485;-43
2024/03/20 02:42:48;;;;;;;;;89.67;63.67;;;;;-0.18;100.00;100116.13;6306356;20;3659045;-41
2024/03/20 02:45:16;;;;;;;;;88.33;63.67;;;;;0.06;100.00;100110.56;6303874;20;3664865;-42
2024/03/20 02:47:45;;;;;;;;;94.33;72.00;;;;;-0.43;100.00;100112.84;6305346;20;2889966;-43
2024/03/20 02:50:13;;;;;;;;;95.67;71.67;;;;;-0.78;100.00;100109.66;6303366;20;3670239;-45
2024/03/20 02:52:41;;;;;;;;;86.67;64.33;;;;;-0.73;100.00;100113.13;6304419;20;3665898;-42
2024/03/20 02:55:10;;;;;;;;;88.00;64.33;;;;;-0.90;100.00;100112.38;6304167;20;3653393;-45
2024/03/20 02:57:38;;;;;;;;;84.00;64.00;;;;;-0.68;100.00;100118.38;6303478;20;2895224;-42
2024/03/20 03:00:10;;;;;;;;;89.00;62.33;;;;;-0.65;100.00;100125.38;6304649;20;3660735;-43
2024/03/20 03:02:37;;;;;;;;;73.50;60.00;;;;;-0.64;100.00;100121.84;6302939;20;2856567;-42
2024/03/20 03:05:06;;;;;;;;;80.33;55.33;;;;;-0.57;100.00;100118.28;6270687;20;2895192;-42
2024/03/20 03:07:35;;;;;;;;;49.67;42.67;;;;;-0.37;100.00;100120.69;6301545;20;3616919;-43
2024/03/20 03:10:05;;;;;;;;;73.50;57.50;;;;;-0.56;100.00;100126.16;6302691;20;2857625;-43
2024/03/20 03:12:33;;;;;;;;;67.50;48.00;;;;;-0.76;100.00;100120.22;6270727;20;2864880;-43
2024/03/20 03:15:01;;;;;;;;;69.00;50.50;;;;;-0.70;100.00;100112.22;6271062;20;2877347;-46
2024/03/20 03:17:28;;;;;;;;;65.50;48.50;;;;;-0.63;100.00;100116.56;6270714;20;2861823;-45
2024/03/20 03:19:55;;;;;;;;;65.50;51.00;;;;;-0.13;100.00;100114.28;6269312;20;2493328;-44
2024/03/20 03:22:22;;;;;;;;;50.00;36.00;;;;;-0.52;100.00;100113.84;6274149;20;2864893;-44
2024/03/20 03:24:50;;;;;;;;;54.50;47.00;;;;;-0.39;100.00;100120.72;6272658;20;2841941;-44
2024/03/20 03:27:18;;;;;;;;;65.00;46.00;;;;;-0.44;100.00;100119.91;6272547;20;2889925;-42
2024/03/20 03:29:47;;;;;;;;;56.67;43.33;;;;;-0.39;100.00;100123.38;6305932;20;3632607;-44
2024/03/20 03:32:15;;;;;;;;;54.50;44.50;;;;;-0.61;100.00;100117.41;6305028;20;2863823;-43
2024/03/20 03:34:46;;;;;;;;;70.67;46.00;;;;;-0.59;100.00;100126.19;6267552;20;2883734;-44
2024/03/20 03:37:14;;;;;;;;;64.67;50.00;;;;;-0.56;100.00;100120.00;6303502;20;3597130;-41
2024/03/20 03:39:40;;;;;;;;;68.00;49.00;;;;;-0.71;100.00;100121.91;6269759;20;2864827;-42
2024/03/20 03:42:08;;;;;;;;;66.00;50.00;;;;;-0.68;100.00;100116.59;6272488;20;2868159;-42
2024/03/20 03:44:36;;;;;;;;;57.33;42.00;;;;;-0.52;100.00;100121.75;6271134;20;2886829;-43
2024/03/20 03:47:04;;;;;;;;;65.50;47.00;;;;;-0.48;100.00;100126.09;6304146;20;2864041;-43
2024/03/20 03:49:33;;;;;;;;;48.00;40.00;;;;;-0.24;100.00;100123.22;6267276;20;2874275;-45
2024/03/20 03:52:02;;;;;;;;;64.33;46.00;;;;;-0.47;100.00;100127.84;6274700;20;3645072;-44
2024/03/20 03:54:30;;;;;;;;;52.00;44.00;;;;;-0.58;100.00;100132.31;6301932;20;2882554;-40
2024/03/20 03:57:02;;;;;;;;;51.67;43.33;;;;;-0.51;100.00;100126.13;6303496;20;3612811;-39
2024/03/20 03:59:29;;;;;;;;;44.50;39.00;;;;;-0.43;100.00;100126.03;6300069;20;2502356;-40
2024/03/20 04:01:57;;;;;;;;;65.00;47.50;;;;;-0.40;100.00;100126.88;6272505;20;2851392;-43
2024/03/20 04:04:25;;;;;;;;;71.67;51.00;;;;;-0.63;100.00;100120.94;6269215;20;2872206;-44
2024/03/20 04:06:53;;;;;;;;;70.33;46.33;;;;;-0.60;100.00;100119.19;6304188;20;2871173;-43
2024/03/20 04:09:21;;;;;;;;;63.00;46.50;;;;;-0.75;100.00;100125.44;6303094;20;2864970;-46
2024/03/20 04:11:49;;;;;;;;;44.67;37.67;;;;;-0.46;100.00;100126.94;6272704;20;2869104;-43
2024/03/20 04:14:18;;;;;;;;;61.33;43.67;;;;;-0.34;100.00;100121.56;6302193;20;3637799;-42
2024/03/20 04:16:45;;;;;;;;;44.50;37.50;;;;;-0.40;100.00;100126.88;6303432;20;2855508;-42
2024/03/20 04:19:12;;;;;;;;;61.50;49.50;;;;;-0.11;100.00;100134.50;6266275;20;2504476;-44
2024/03/20 04:21:40;;;;;;;;;48.50;43.00;;;;;-0.10;100.00;100136.25;6273129;20;2877330;-42
2024/03/20 04:24:07;;;;;;;;;40.00;33.00;;;;;-0.27;99.75;100139.06;6270506;20;2852394;-40
2024/03/20 04:26:36;;;;;;;;;62.33;43.33;;;;;-0.69;100.00;100135.94;6272608;20;2875362;-43
2024/03/20 04:29:03;;;;;;;;;63.00;47.00;;;;;-0.10;100.00;100143.31;6302150;20;2853419;-42
2024/03/20 04:31:31;;;;;;;;;59.00;46.50;;;;;-0.81;100.00;100143.97;6274252;20;2867066;-44
2024/03/20 04:33:58;;;;;;;;;48.50;42.50;;;;;-0.63;100.00;100142.03;6270637;20;2866071;-43
2024/03/20 04:36:26;;;;;;;;;50.50;36.50;;;;;-0.91;100.00;100140.50;6270896;20;2878479;-40
2024/03/20 04:38:55;;;;;;;;;54.33;42.67;;;;;-0.69;100.00;100146.47;6275247;20;2877533;-42
2024/03/20 04:41:22;;;;;;;;;68.00;49.00;;;;;-0.57;100.00;100139.38;6305329;20;2867072;-41
2024/03/20 04:43:53;;;;;;;;;71.00;48.00;;;;;-0.28;100.00;100142.59;6277260;20;2877382;-41
2024/03/20 04:46:20;;;;;;;;;79.50;59.50;;;;;-0.13;99.92;100151.22;6277244;20;2882565;-41
2024/03/20 04:48:49;;;;;;;;;80.00;56.33;;;;;-0.50;100.00;100151.59;6275006;20;3644106;-42
2024/03/20 04:51:16;;;;;;;;;50.50;40.00;;;;;-0.35;100.00;100150.59;6305330;20;2500337;-41
2024/03/20 04:53:44;;;;;;;;;56.33;44.67;;;;;0.08;98.97;100156.28;6277482;20;2870062;-42
2024/03/20 04:56:13;;;;;;;;;67.00;51.67;;;;;-0.75;100.00;100161.50;6308329;20;2878464;-41
2024/03/20 04:58:39;;;;;;;;;65.50;50.50;;;;;-0.68;100.00;100166.69;6302445;20;2493548;-40
2024/03/20 05:01:09;;;;;;;;;59.00;47.50;;;;;-0.57;100.00;100173.66;6275710;20;2861777;-42
2024/03/20 05:03:36;;;;;;;;;67.00;51.50;;;;;-0.75;100.00;100172.91;6275872;20;2871105;-41
2024/03/20 05:06:05;;;;;;;;;44.33;33.33;;;;;-0.86;100.00;100174.75;6274937;20;2871205;-45
2024/03/20 05:08:33;;;;;;;;;61.00;48.50;;;;;-0.81;100.00;100177.38;6308351;20;2875390;-41
2024/03/20 05:11:02;;;;;;;;;72.67;52.67;;;;;-0.66;100.00;100182.50;6272876;20;2880586;-42
2024/03/20 05:13:30;;;;;;;;;57.67;43.67;;;;;-0.14;100.00;100178.53;6307038;20;3612808;-42
2024/03/20 05:15:59;;;;;;;;;56.50;43.50;;;;;-0.78;100.00;100194.03;6306654;20;2864897;-42
2024/03/20 05:18:27;;;;;;;;;73.00;55.50;;;;;-0.40;100.00;100186.69;6275163;20;2873340;-41
2024/03/20 05:20:55;;;;;;;;;62.50;47.50;;;;;-0.25;100.00;100194.47;6276549;20;2872186;-42
2024/03/20 05:23:21;;;;;;;;;63.00;46.50;;;;;0.59;95.28;100196.16;6274020;20;2494083;-44
2024/03/20 05:25:57;;;;;;;;;56.67;45.00;;;;;-0.16;99.30;100194.34;6275068;20;2873289;-41
2024/03/20 05:28:25;;;;;;;;;57.00;47.50;;;;;0.09;99.54;100199.41;6306681;20;2841939;-41
2024/03/20 05:30:53;;;;;;;;;61.50;47.50;;;;;1.89;89.44;100195.94;6276778;20;2852480;-41
2024/03/20 05:33:22;;;;;;;;;62.00;48.50;;;;;0.63;91.60;100205.81;6273935;20;2856566;-41
2024/03/20 05:35:49;;;;;;;;;63.50;48.00;;;;;0.97;93.68;100215.91;6274396;20;2866995;-41
2024/03/20 05:38:16;;;;;;;;;64.00;49.50;;;;;0.93;93.22;100216.88;6271010;20;2493024;-41
2024/03/20 05:40:44;;;;;;;;;56.33;42.67;;;;;1.52;92.17;100214.22;6275531;20;2889930;-42
2024/03/20 05:43:11;;;;;;;;;73.00;55.00;;;;;1.82;88.56;100218.13;6302559;20;2457669;-41
2024/03/20 05:45:39;;;;;;;;;69.00;52.33;;;;;1.76;87.67;100210.28;6274037;20;2883715;-42
2024/03/20 05:48:07;;;;;;;;;71.50;54.00;;;;;2.11;85.01;100219.41;6305392;20;2878525;-41
2024/03/20 05:50:38;;;;;;;;;69.00;54.00;;;;;2.14;86.23;100211.38;6276445;20;2860703;-42
2024/03/20 05:53:06;;;;;;;;;62.00;48.00;;;;;1.73;87.28;100213.84;6275215;20;2869033;-41
2024/03/20 05:55:33;;;;;;;;;68.50;54.50;;;;;1.45;89.34;100215.19;6274293;20;2861881;-43
2024/03/20 05:58:02;;;;;;;;;87.33;65.67;;;;;1.95;87.23;100214.38;6274712;20;3646101;-42
2024/03/20 06:00:31;;;;;;;;;92.33;68.67;;;;;2.82;83.50;100217.09;6306350;20;3670021;-42
2024/03/20 06:03:00;;;;;;;;;79.33;61.00;;;;;3.77;77.59;100223.75;6273268;20;3644004;-44
2024/03/20 06:05:28;;;;;;;;;82.33;59.67;;;;;5.44;69.79;100222.50;6305410;20;3660728;-45
2024/03/20 06:07:57;;;;;;;;;77.67;59.67;;;;;7.17;60.60;100222.66;6306689;20;3645100;-42
2024/03/20 06:10:25;;;;;;;;;80.33;62.33;;;;;7.90;56.62;100232.19;6307747;20;3620083;-45
2024/03/20 06:12:54;;;;;;;;;80.00;61.00;;;;;6.37;59.93;100234.53;6306194;20;3631507;-43
2024/03/20 06:15:22;;;;;;;;;80.67;61.00;;;;;4.84;66.42;100224.34;6301559;20;3653459;-42
2024/03/20 06:17:50;;;;;;;;;69.00;52.00;;;;;4.80;68.70;100220.03;6273303;20;3646097;-42
2024/03/20 06:20:19;;;;;;;;;75.67;55.67;;;;;4.76;70.15;100225.47;6304988;20;3643008;-43
2024/03/20 06:22:48;;;;;;;;;81.00;59.33;;;;;4.67;74.30;100223.09;6306272;20;3666958;-43
2024/03/20 06:25:17;;;;;;;;;73.67;56.00;;;;;4.52;73.90;100229.72;6269957;20;3636757;-44
2024/03/20 06:27:45;;;;;;;;;76.33;56.67;;;;;4.83;74.85;100229.72;6306064;20;3638820;-45
2024/03/20 06:30:15;;;;;;;;;72.67;55.33;;;;;4.52;74.88;100230.56;6305410;20;3638806;-43
2024/03/20 06:32:46;;;;;;;;;67.00;54.33;;;;;4.32;79.33;100227.63;6305089;20;3621117;-43
2024/03/20 06:35:16;;;;;;;;;63.67;49.33;;;;;3.42;83.50;100228.13;6304001;20;3627367;-46
2024/03/20 06:37:45;;;;;;;;;71.67;52.33;;;;;3.78;84.38;100231.66;6302914;20;2887932;-45
2024/03/20 06:40:13;;;;;;;;;69.00;52.00;;;;;4.18;81.92;100231.50;6305872;20;2751313;-42
2024/03/20 06:42:41;;;;;;;;;64.50;50.00;;;;;5.14;77.28;100240.31;6304368;20;2855478;-43
2024/03/20 06:45:09;;;;;;;;;65.33;49.67;;;;;5.20;77.34;100232.13;6271008;20;2874280;-43
2024/03/20 06:47:38;;;;;;;;;65.00;52.33;;;;;5.59;74.84;100237.13;6305105;20;3627412;-45
2024/03/20 06:50:08;;;;;;;;;71.67;55.00;;;;;6.46;70.83;100240.44;6303902;20;3634685;-43
2024/03/20 06:52:38;;;;;;;;;74.33;57.00;;;;;7.19;67.59;100237.69;6303597;20;3640867;-45
2024/03/20 06:55:14;;;;;;;;;62.00;45.00;;;;;7.26;65.00;100241.00;6293011;20;2884830;-45
2024/03/20 06:57:42;;;;;;;;;71.67;53.67;;;;;7.87;62.12;100240.31;6304254;20;3642000;-44
2024/03/20 07:00:17;;;;;;;;;71.67;56.00;;;;;8.18;59.57;100247.91;6271103;20;3632579;-42
2024/03/20 07:02:48;;;;;;;;;70.00;54.00;;;;;7.70;61.56;100244.56;6302303;20;3627344;-43
2024/03/20 07:05:17;;;;;;;;;66.33;54.00;;;;;7.39;64.92;100254.75;6302514;20;2864931;-43
2024/03/20 07:07:46;;;;;;;;;72.33;54.33;;;;;8.10;61.49;100253.59;6304331;20;3645113;-44
2024/03/20 07:10:14;;;;;;;;;66.00;50.67;;;;;8.32;60.48;100253.56;6304521;20;3622147;-44
2024/03/20 07:12:42;;;;;;;;;67.33;49.33;;;;;9.17;57.30;100257.84;6304949;20;3632626;-43
2024/03/20 07:15:11;;;;;;;;;71.00;54.00;;;;;9.27;55.29;100263.63;6273968;20;3620095;-42
2024/03/20 07:17:40;;;;;;;;;64.33;51.67;;;;;9.25;54.67;100261.03;6273649;20;3616475;-46
2024/03/20 07:20:09;;;;;;;;;54.33;44.33;;;;;8.62;55.30;100263.91;6306617;20;2864896;-43
2024/03/20 07:22:37;;;;;;;;;54.00;40.33;;;;;9.56;51.98;100264.94;6305378;20;2868116;-42
2024/03/20 07:25:07;;;;;;;;;53.00;42.00;;;;;9.97;50.92;100260.22;6304986;20;2867139;-42
2024/03/20 07:27:36;;;;;;;;;50.67;39.67;;;;;9.38;52.16;100277.41;6306461;20;3608696;-44
2024/03/20 07:30:06;;;;;;;;;40.67;35.67;;;;;9.77;51.69;100269.25;6306548;20;2852536;-43
2024/03/20 07:32:35;;;;;;;;;50.67;37.67;;;;;10.09;52.51;100269.47;6304444;20;3617000;-43
2024/03/20 07:35:06;;;;;;;;;49.00;37.00;;;;;10.41;50.93;100267.88;6303541;20;2866974;-44
2024/03/20 07:37:33;;;;;;;;;41.50;37.00;;;;;10.85;48.49;100277.22;6305062;20;2849277;-42
2024/03/20 07:40:01;;;;;;;;;36.67;31.33;;;;;10.57;46.64;100277.81;6274721;20;3603515;-42
2024/03/20 07:42:28;;;;;;;;;33.00;29.00;;;;;10.24;48.43;100275.88;6274009;20;2743094;-44
2024/03/20 07:44:57;;;;;;;;;29.67;29.00;;;;;10.52;46.84;100276.22;6302254;20;3605539;-44
2024/03/20 07:47:25;;;;;;;;;33.00;28.00;;;;;11.16;46.81;100281.81;6304941;20;3606534;-43
2024/03/20 07:49:53;;;;;;;;;35.33;30.00;;;;;11.08;45.21;100276.84;6307031;20;3625357;-44
2024/03/20 07:52:20;;;;;;;;;28.33;26.00;;;;;10.86;47.08;100269.09;6276868;20;3596247;-44
2024/03/20 07:54:49;;;;;;;;;29.00;28.00;;;;;11.41;45.71;100278.66;6272377;20;3602355;-43
2024/03/20 07:57:16;;;;;;;;;37.67;29.67;;;;;10.78;47.19;100268.63;6306963;20;3630519;-41
2024/03/20 07:59:44;;;;;;;;;27.67;26.67;;;;;11.87;45.18;100270.69;6270256;20;3588790;-43
2024/03/20 08:02:12;;;;;;;;;34.33;30.67;;;;;11.20;45.87;100273.50;6275434;20;3624265;-42
2024/03/20 08:04:41;;;;;;;;;32.33;27.00;;;;;11.30;47.56;100273.00;6306708;20;3606545;-43
2024/03/20 08:07:08;;;;;;;;;30.00;21.50;;;;;11.51;45.36;100274.50;6275030;20;2853456;-44
2024/03/20 08:09:36;;;;;;;;;27.00;25.00;;;;;11.80;45.00;100269.28;6271965;20;2836743;-42
2024/03/20 08:12:04;;;;;;;;;29.33;24.33;;;;;11.49;43.97;100276.41;6273809;20;2854459;-41
2024/03/20 08:14:32;;;;;;;;;20.00;20.00;;;;;10.78;43.94;100268.63;6301238;20;2835715;-42
2024/03/20 08:17:00;;;;;;;;;27.00;26.33;;;;;10.87;44.38;100264.56;6275255;20;2857050;-42
2024/03/20 08:19:28;;;;;;;;;31.00;25.00;;;;;11.39;44.57;100270.66;6306902;20;3612866;-41
2024/03/20 08:21:55;;;;;;;;;25.50;22.50;;;;;11.51;42.95;100268.25;6274425;20;2831651;-42
2024/03/20 08:24:23;;;;;;;;;23.00;22.00;;;;;11.46;42.50;100276.56;6272230;20;2857567;-42
2024/03/20 08:26:51;;;;;;;;;28.00;19.67;;;;;11.21;44.07;100277.91;6273368;20;2857584;-44
2024/03/20 08:29:19;;;;;;;;;30.33;29.00;;;;;11.01;43.13;100275.47;6306616;20;3595083;-42
2024/03/20 08:31:47;;;;;;;;;29.67;24.67;;;;;11.17;44.58;100279.03;6270298;20;3602441;-41
2024/03/20 08:34:16;;;;;;;;;35.33;32.00;;;;;11.68;43.35;100272.66;6306663;20;3601304;-42
2024/03/20 08:36:44;;;;;;;;;36.00;30.00;;;;;11.37;43.89;100271.69;6272960;20;2734646;-42
2024/03/20 08:39:12;;;;;;;;;30.33;28.67;;;;;11.24;43.53;100276.88;6305335;20;3606512;-42
2024/03/20 08:41:41;;;;;;;;;28.33;27.00;;;;;11.31;43.04;100280.13;6273150;20;2849348;-42
2024/03/20 08:44:10;;;;;;;;;30.00;25.00;;;;;11.39;42.82;100285.94;6303085;20;3600392;-42
2024/03/20 08:46:41;;;;;;;;;28.33;26.33;;;;;11.56;42.73;100280.50;6268948;20;3607608;-42
2024/03/20 08:49:10;;;;;;;;;26.67;24.00;;;;;11.85;42.88;100286.91;6304384;20;2847259;-41
2024/03/20 08:51:39;;;;;;;;;35.67;30.00;;;;;11.14;43.51;100271.16;6305664;20;3613956;-42
2024/03/20 08:54:07;;;;;;;;;33.67;28.67;;;;;11.48;42.50;100268.41;6275627;20;3619028;-43
2024/03/20 08:56:36;;;;;;;;;34.67;30.00;;;;;11.60;42.71;100268.59;6274373;20;3615894;-44
2024/03/20 08:59:03;;;;;;;;;35.00;31.00;;;;;11.42;43.42;100270.47;6274549;20;3598172;-45
2024/03/20 09:01:32;;;;;;;;;28.33;28.00;;;;;11.36;42.85;100270.84;6267743;20;2860990;-43
2024/03/20 09:03:59;;;;;;;;;42.33;32.33;;;;;12.03;43.13;100276.94;6303531;20;3587818;-44
2024/03/20 09:06:27;;;;;;;;;36.50;30.50;;;;;12.57;42.55;100275.56;6270933;20;2853523;-46
2024/03/20 09:08:55;;;;;;;;;36.00;32.00;;;;;12.06;42.56;100271.38;6270280;20;2852554;-43
2024/03/20 09:11:23;;;;;;;;;39.67;34.67;;;;;12.23;43.87;100278.44;6272613;20;3615992;-46
2024/03/20 09:13:51;;;;;;;;;44.00;35.50;;;;;11.92;43.73;100265.06;6299329;20;2853407;-44
2024/03/20 09:16:18;;;;;;;;;45.50;37.00;;;;;12.04;42.97;100273.28;6272353;20;2845134;-44
2024/03/20 09:18:46;;;;;;;;;39.33;34.67;;;;;12.34;43.66;100272.44;6271143;20;3610020;-42
2024/03/20 09:21:14;;;;;;;;;40.67;34.67;;;;;12.47;43.12;100270.72;6307194;20;3612795;-44
2024/03/20 09:23:42;;;;;;;;;43.67;35.00;;;;;12.49;42.54;100271.50;6273811;20;2847337;-43
2024/03/20 09:26:10;;;;;;;;;35.67;30.67;;;;;12.29;41.94;100261.91;6310162;20;3596226;-44
2024/03/20 09:28:37;;;;;;;;;38.33;31.33;;;;;12.39;42.83;100267.63;6290407;20;3607544;-43
2024/03/20 09:31:06;;;;;;;;;39.33;30.00;;;;;13.04;41.89;100258.31;6276790;20;3595108;-44
2024/03/20 09:33:33;;;;;;;;;38.33;31.67;;;;;12.95;41.96;100266.03;6309982;20;3583617;-43
2024/03/20 09:36:02;;;;;;;;;31.00;30.00;;;;;13.05;41.10;100265.44;6277933;20;3606575;-44
2024/03/20 09:38:29;;;;;;;;;31.00;27.00;;;;;12.74;41.94;100254.75;6308166;20;3604459;-43
2024/03/20 09:40:58;;;;;;;;;34.33;28.00;;;;;12.51;41.19;100261.53;6278748;20;3613793;-43
2024/03/20 09:43:26;;;;;;;;;27.33;23.33;;;;;12.70;39.95;100249.63;6309082;20;3581506;-43
2024/03/20 09:45:54;;;;;;;;;32.33;28.67;;;;;13.15;40.51;100259.38;6279985;20;3611723;-42
2024/03/20 09:48:22;;;;;;;;;32.33;28.00;;;;;12.76;41.17;100257.31;6278521;20;3608661;-43
2024/03/20 09:50:50;;;;;;;;;27.00;25.33;;;;;12.60;41.82;100257.41;6278809;20;3597182;-45
2024/03/20 09:53:19;;;;;;;;;33.33;29.00;;;;;13.12;41.22;100264.09;6277319;20;3610795;-44
2024/03/20 09:55:47;;;;;;;;;32.00;27.33;;;;;12.66;40.90;100248.94;6307215;20;3597211;-43
2024/03/20 09:58:15;;;;;;;;;35.33;30.33;;;;;13.03;42.03;100259.25;6280094;20;3595060;-43
2024/03/20 10:00:43;;;;;;;;;31.00;30.00;;;;;13.28;41.40;100255.94;6278478;20;2849748;-43
2024/03/20 10:03:14;;;;;;;;;33.00;28.33;;;;;13.46;40.09;100251.19;6309129;20;3613291;-43
2024/03/20 10:05:41;;;;;;;;;27.00;22.67;;;;;13.50;40.14;100253.56;6277621;20;3591987;-42
2024/03/20 10:08:12;;;;;;;;;33.33;29.33;;;;;13.32;39.70;100246.66;6272726;20;3610750;-42
2024/03/20 10:10:43;;;;;;;;;35.00;28.67;;;;;13.15;40.61;100245.03;6305674;20;3610754;-44
2024/03/20 10:13:14;;;;;;;;;27.00;26.00;;;;;13.39;39.92;100245.31;6308190;20;3600397;-43
2024/03/20 10:15:41;;;;;;;;;29.33;27.33;;;;;12.81;39.09;100235.50;6275515;20;3596118;-44
2024/03/20 10:18:15;;;;;;;;;30.33;25.33;;;;;13.27;39.20;100246.97;6276740;20;2846253;-42
2024/03/20 10:20:43;;;;;;;;;28.00;25.00;;;;;13.41;39.22;100242.53;6309483;20;3584684;-44
2024/03/20 10:23:15;;;;;;;;;26.50;22.00;;;;;13.50;38.87;100242.78;6273382;20;2847215;-42
2024/03/20 10:25:42;;;;;;;;;25.00;25.00;;;;;13.90;38.51;100224.00;6273558;20;2845094;-43
2024/03/20 10:28:14;;;;;;;;;24.00;21.00;;;;;13.97;37.69;100227.13;6277603;20;2831695;-42
2024/03/20 10:30:43;;;;;;;;;20.00;17.50;;;;;14.08;37.71;100227.25;6273408;20;2835820;-43
2024/03/20 10:33:20;;;;;;;;;22.50;21.00;;;;;13.82;39.64;100219.09;6275897;20;2841997;-46
2024/03/20 10:35:53;;;;;;;;;27.00;21.00;;;;;13.44;38.01;100229.69;6273753;20;2848194;-45
2024/03/20 10:38:22;;;;;;;;;24.50;24.50;;;;;13.48;37.87;100215.06;6275835;20;2844085;-44
2024/03/20 10:40:52;;;;;;;;;26.50;21.50;;;;;14.07;39.07;100220.16;6279806;20;3534705;-43
2024/03/20 10:43:24;;;;;;;;;27.33;23.33;;;;;13.18;38.38;100212.47;6309409;20;3582601;-44
2024/03/20 10:45:54;;;;;;;;;21.67;21.00;;;;;13.17;37.79;100211.59;6275520;20;3575327;-43
2024/03/20 10:48:24;;;;;;;;;21.00;20.00;;;;;13.53;39.80;100206.66;6274194;20;2837786;-43
2024/03/20 10:50:54;;;;;;;;;19.50;18.50;;;;;14.48;38.64;100200.22;6274402;20;2830907;-43
2024/03/20 10:53:25;;;;;;;;;28.67;20.67;;;;;14.31;37.89;100209.50;6275868;20;2848212;-44
2024/03/20 10:55:54;;;;;;;;;23.00;19.50;;;;;14.21;37.73;100203.84;6305694;20;2848225;-43
2024/03/20 10:58:25;;;;;;;;;24.50;21.00;;;;;13.90;39.17;100198.81;6275686;20;2850300;-44